createdAt,value
2016-05-31T00:00:02.390Z,17.78
2016-05-31T00:01:02.377Z,17.67
2016-05-31T00:02:02.333Z,17.68
2016-05-31T00:03:02.336Z,17.64
2016-05-31T00:04:02.150Z,17.7
2016-05-31T00:05:02.310Z,17.63
2016-05-31T00:06:02.297Z,17.78
2016-05-31T00:07:02.268Z,17.65
2016-05-31T00:08:02.536Z,17.64
2016-05-31T00:09:02.243Z,17.65
2016-05-31T00:10:02.230Z,17.79
2016-05-31T00:11:02.201Z,17.72
2016-05-31T00:12:02.188Z,17.72
2016-05-31T00:13:02.174Z,17.65
2016-05-31T00:14:01.990Z,17.63
2016-05-31T00:15:01.977Z,17.6
2016-05-31T00:16:01.980Z,17.51
2016-05-31T00:17:02.092Z,17.54
2016-05-31T00:18:01.922Z,17.54
2016-05-31T00:19:02.066Z,17.51
2016-05-31T00:20:02.054Z,17.56
2016-05-31T00:21:02.025Z,17.63
2016-05-31T00:22:01.855Z,17.52
2016-05-31T00:23:01.998Z,17.54
2016-05-31T00:24:02.000Z,17.64
2016-05-31T00:25:01.957Z,17.72
2016-05-31T00:26:01.944Z,17.65
2016-05-31T00:27:01.931Z,17.67
2016-05-31T00:28:01.746Z,17.56
2016-05-31T00:29:01.890Z,17.64
2016-05-31T00:30:01.720Z,17.59
2016-05-31T00:31:01.708Z,17.76
2016-05-31T00:32:01.835Z,17.72
2016-05-31T00:33:01.822Z,17.48
2016-05-31T00:34:01.653Z,17.46
2016-05-31T00:35:01.797Z,17.44
2016-05-31T00:36:01.768Z,17.59
2016-05-31T00:37:01.771Z,17.74
2016-05-31T00:38:02.320Z,17.38
2016-05-31T00:39:01.714Z,17.45
2016-05-31T00:40:01.716Z,17.46
2016-05-31T00:41:01.687Z,17.46
2016-05-31T00:42:01.674Z,17.48
2016-05-31T00:43:01.646Z,17.49
2016-05-31T00:44:01.493Z,17.54
2016-05-31T00:45:01.635Z,17.57
2016-05-31T00:46:01.607Z,17.42
2016-05-31T00:47:01.423Z,17.46
2016-05-31T00:48:01.566Z,17.48
2016-05-31T00:49:01.554Z,17.7
2016-05-31T00:50:01.384Z,17.65
2016-05-31T00:51:01.355Z,17.57
2016-05-31T00:52:01.499Z,17.49
2016-05-31T00:53:01.626Z,17.63
2016-05-31T00:54:01.457Z,17.68
2016-05-31T00:55:01.444Z,17.67
2016-05-31T00:56:01.447Z,17.72
2016-05-31T00:57:01.403Z,17.59
2016-05-31T00:58:01.389Z,17.48
2016-05-31T00:59:01.377Z,17.48
2016-05-31T01:00:01.395Z,17.57
2016-05-31T01:01:01.335Z,17.67
2016-05-31T01:02:01.322Z,17.67
2016-05-31T01:03:01.309Z,17.51
2016-05-31T01:04:01.297Z,17.57
2016-05-31T01:05:01.283Z,17.79
2016-05-31T01:06:01.271Z,17.8
2016-05-31T01:07:01.227Z,17.68
2016-05-31T01:08:02.010Z,17.64
2016-05-31T01:09:01.200Z,17.76
2016-05-31T01:10:01.203Z,17.78
2016-05-31T01:11:01.190Z,17.78
2016-05-31T01:12:01.162Z,17.68
2016-05-31T01:13:01.133Z,17.71
2016-05-31T01:14:01.104Z,17.72
2016-05-31T01:15:00.951Z,17.78
2016-05-31T01:16:01.110Z,17.76
2016-05-31T01:17:01.065Z,17.67
2016-05-31T01:18:01.053Z,17.64
2016-05-31T01:19:01.040Z,17.67
2016-05-31T01:20:01.026Z,17.74
2016-05-31T01:21:00.998Z,17.63
2016-05-31T01:22:00.985Z,17.33
2016-05-31T01:23:01.175Z,17.51
2016-05-31T01:24:00.945Z,17.59
2016-05-31T01:25:00.947Z,17.68
2016-05-31T01:26:00.934Z,17.59
2016-05-31T01:27:00.748Z,17.44
2016-05-31T01:28:00.876Z,17.45
2016-05-31T01:29:00.864Z,17.63
2016-05-31T01:30:00.695Z,17.59
2016-05-31T01:31:00.822Z,17.48
2016-05-31T01:32:00.512Z,17.52
2016-05-31T01:33:00.796Z,17.46
2016-05-31T01:34:00.784Z,17.56
2016-05-31T01:35:00.755Z,17.68
2016-05-31T01:36:00.585Z,17.57
2016-05-31T01:37:00.730Z,17.54
2016-05-31T01:38:00.794Z,17.41
2016-05-31T01:39:00.688Z,17.26
2016-05-31T01:40:00.690Z,17.34
2016-05-31T01:41:00.646Z,17.45
2016-05-31T01:42:00.476Z,17.46
2016-05-31T01:43:00.620Z,17.39
2016-05-31T01:44:00.607Z,17.42
2016-05-31T01:45:00.579Z,17.38
2016-05-31T01:46:00.424Z,17.42
2016-05-31T01:47:00.412Z,17.33
2016-05-31T01:48:00.384Z,17.39
2016-05-31T01:49:00.527Z,17.44
2016-05-31T01:50:00.514Z,17.49
2016-05-31T01:51:00.485Z,17.26
2016-05-31T01:52:00.457Z,17.33
2016-05-31T01:53:00.303Z,17.22
2016-05-31T01:54:00.446Z,17.22
2016-05-31T01:55:00.418Z,17.23
2016-05-31T01:56:00.390Z,17.45
2016-05-31T01:57:00.236Z,17.38
2016-05-31T01:58:00.223Z,17.14
2016-05-31T01:59:00.350Z,17.26
2016-05-31T02:00:00.353Z,17.16
2016-05-31T02:01:00.325Z,17.2
2016-05-31T02:02:00.297Z,17.14
2016-05-31T02:03:00.127Z,17.12
2016-05-31T02:04:00.255Z,17.15
2016-05-31T02:05:00.257Z,17.06
2016-05-31T02:06:00.245Z,17.09
2016-05-31T02:07:00.216Z,17.22
2016-05-31T02:08:01.093Z,17.14
2016-05-31T02:09:00.174Z,17.14
2016-05-31T02:10:00.146Z,17.08
2016-05-31T02:10:59.992Z,17.16
2016-05-31T02:12:00.136Z,17.14
2016-05-31T02:13:00.122Z,17.15
2016-05-31T02:14:00.094Z,17.09
2016-05-31T02:15:00.082Z,17.06
2016-05-31T02:16:00.052Z,17.04
2016-05-31T02:17:00.040Z,17.16
2016-05-31T02:18:00.027Z,17.06
2016-05-31T02:18:59.843Z,16.99
2016-05-31T02:20:00.001Z,17.02
2016-05-31T02:20:59.973Z,17.05
2016-05-31T02:21:59.959Z,16.91
2016-05-31T02:23:00.712Z,16.94
2016-05-31T02:23:59.934Z,16.93
2016-05-31T02:24:59.905Z,16.89
2016-05-31T02:25:59.893Z,17.01
2016-05-31T02:26:59.864Z,17.04
2016-05-31T02:27:59.851Z,17.09
2016-05-31T02:28:59.666Z,17.02
2016-05-31T02:29:59.809Z,17.05
2016-05-31T02:30:59.812Z,16.81
2016-05-31T02:31:59.783Z,16.97
2016-05-31T02:32:59.598Z,17.11
2016-05-31T02:33:59.742Z,17.01
2016-05-31T02:34:59.729Z,17.08
2016-05-31T02:35:59.716Z,17.15
2016-05-31T02:36:59.703Z,17.19
2016-05-31T02:37:59.580Z,17.12
2016-05-31T02:38:59.661Z,17.08
2016-05-31T02:39:59.633Z,17.16
2016-05-31T02:40:59.619Z,17.19
2016-05-31T02:41:59.591Z,17.24
2016-05-31T02:42:59.594Z,17.19
2016-05-31T02:43:59.581Z,17.16
2016-05-31T02:44:59.552Z,17.15
2016-05-31T02:45:59.540Z,17.11
2016-05-31T02:46:59.526Z,17.26
2016-05-31T02:47:59.513Z,17.19
2016-05-31T02:48:59.485Z,17.24
2016-05-31T02:49:59.316Z,17.15
2016-05-31T02:50:59.444Z,17.12
2016-05-31T02:51:59.118Z,17.2
2016-05-31T02:52:59.480Z,17.06
2016-05-31T02:53:59.232Z,17.05
2016-05-31T02:54:59.392Z,16.94
2016-05-31T02:55:59.223Z,17.11
2016-05-31T02:56:59.210Z,17.09
2016-05-31T02:57:59.337Z,17.06
2016-05-31T02:58:59.153Z,17.09
2016-05-31T02:59:59.123Z,17.08
2016-05-31T03:00:59.127Z,17.22
2016-05-31T03:01:59.254Z,17.15
2016-05-31T03:02:59.242Z,17.19
2016-05-31T03:03:59.228Z,17.16
2016-05-31T03:04:59.216Z,17.29
2016-05-31T03:05:59.031Z,17.33
2016-05-31T03:06:59.033Z,17.19
2016-05-31T03:08:00.303Z,17.22
2016-05-31T03:08:59.148Z,17.24
2016-05-31T03:09:59.120Z,17.33
2016-05-31T03:10:58.950Z,17.36
2016-05-31T03:11:59.077Z,17.36
2016-05-31T03:12:58.925Z,17.27
2016-05-31T03:13:59.036Z,17.26
2016-05-31T03:14:58.883Z,17.26
2016-05-31T03:15:59.011Z,17.19
2016-05-31T03:16:58.841Z,16.87
2016-05-31T03:17:58.985Z,16.91
2016-05-31T03:18:58.800Z,16.9
2016-05-31T03:19:58.943Z,16.89
2016-05-31T03:20:58.946Z,16.91
2016-05-31T03:21:58.918Z,16.89
2016-05-31T03:22:59.452Z,16.89
2016-05-31T03:23:58.876Z,16.94
2016-05-31T03:24:58.863Z,16.91
2016-05-31T03:25:58.851Z,16.89
2016-05-31T03:26:58.821Z,16.94
2016-05-31T03:27:58.652Z,17.01
2016-05-31T03:28:58.640Z,17.09
2016-05-31T03:29:58.626Z,17.12
2016-05-31T03:30:58.754Z,17.01
2016-05-31T03:31:58.585Z,16.81
2016-05-31T03:32:58.728Z,16.86
2016-05-31T03:33:58.700Z,16.87
2016-05-31T03:34:58.687Z,17.11
2016-05-31T03:35:58.503Z,16.91
2016-05-31T03:36:58.505Z,16.96
2016-05-31T03:37:58.601Z,17.04
2016-05-31T03:38:58.464Z,17.04
2016-05-31T03:39:58.606Z,17.04
2016-05-31T03:40:58.578Z,17.12
2016-05-31T03:41:58.565Z,17.04
2016-05-31T03:42:58.552Z,17.08
2016-05-31T03:43:58.539Z,17.08
2016-05-31T03:44:58.510Z,17.04
2016-05-31T03:45:58.498Z,16.96
2016-05-31T03:46:58.469Z,16.9
2016-05-31T03:47:58.471Z,17.01
2016-05-31T03:48:58.460Z,17.05
2016-05-31T03:49:58.430Z,17.05
2016-05-31T03:50:58.401Z,17.06
2016-05-31T03:51:58.389Z,16.96
2016-05-31T03:52:58.079Z,16.9
2016-05-31T03:53:58.363Z,17.01
2016-05-31T03:54:58.335Z,16.87
2016-05-31T03:55:58.337Z,16.9
2016-05-31T03:56:58.324Z,17.04
2016-05-31T03:57:58.296Z,17.06
2016-05-31T03:58:58.267Z,16.96
2016-05-31T03:59:58.254Z,17.01
2016-05-31T04:00:58.241Z,17.04
2016-05-31T04:01:58.229Z,17.12
2016-05-31T04:02:58.184Z,17.14
2016-05-31T04:03:58.170Z,17.06
2016-05-31T04:04:58.174Z,17.04
2016-05-31T04:05:57.989Z,16.99
2016-05-31T04:06:58.147Z,16.96
2016-05-31T04:07:57.806Z,16.99
2016-05-31T04:08:58.092Z,17.09
2016-05-31T04:09:58.078Z,17.2
2016-05-31T04:10:58.064Z,17.08
2016-05-31T04:11:58.053Z,17.08
2016-05-31T04:12:58.039Z,16.93
2016-05-31T04:13:58.026Z,17.08
2016-05-31T04:14:57.997Z,17.04
2016-05-31T04:15:57.969Z,17.05
2016-05-31T04:16:57.816Z,16.93
2016-05-31T04:17:57.943Z,16.99
2016-05-31T04:18:57.930Z,17.09
2016-05-31T04:19:57.918Z,16.99
2016-05-31T04:20:57.904Z,16.96
2016-05-31T04:21:57.704Z,16.81
2016-05-31T04:22:57.722Z,16.87
2016-05-31T04:23:57.835Z,16.91
2016-05-31T04:24:57.821Z,16.86
2016-05-31T04:25:57.480Z,16.91
2016-05-31T04:26:57.780Z,16.93
2016-05-31T04:27:57.626Z,16.97
2016-05-31T04:28:57.737Z,16.91
2016-05-31T04:29:57.725Z,16.94
2016-05-31T04:30:57.713Z,16.94
2016-05-31T04:31:57.543Z,16.91
2016-05-31T04:32:57.686Z,16.94
2016-05-31T04:33:57.502Z,16.94
2016-05-31T04:34:57.489Z,16.93
2016-05-31T04:35:57.631Z,16.89
2016-05-31T04:36:57.620Z,16.72
2016-05-31T04:37:58.028Z,16.81
2016-05-31T04:38:57.578Z,16.87
2016-05-31T04:39:57.408Z,16.79
2016-05-31T04:40:57.412Z,16.87
2016-05-31T04:41:57.523Z,16.79
2016-05-31T04:42:57.494Z,16.83
2016-05-31T04:43:57.497Z,16.76
2016-05-31T04:44:57.469Z,16.9
2016-05-31T04:45:57.472Z,16.91
2016-05-31T04:46:57.443Z,17.04
2016-05-31T04:47:57.430Z,16.89
2016-05-31T04:48:57.417Z,16.84
2016-05-31T04:49:57.232Z,16.76
2016-05-31T04:50:57.376Z,16.84
2016-05-31T04:51:57.347Z,16.9
2016-05-31T04:52:57.678Z,16.93
2016-05-31T04:53:57.321Z,16.93
2016-05-31T04:54:57.308Z,16.99
2016-05-31T04:55:57.139Z,17.04
2016-05-31T04:56:57.267Z,16.94
2016-05-31T04:57:57.254Z,16.96
2016-05-31T04:58:57.225Z,16.93
2016-05-31T04:59:57.213Z,16.89
2016-05-31T05:00:57.199Z,16.87
2016-05-31T05:01:57.170Z,16.74
2016-05-31T05:02:57.174Z,16.86
2016-05-31T05:03:57.145Z,16.84
2016-05-31T05:04:57.132Z,17.05
2016-05-31T05:05:56.947Z,17.06
2016-05-31T05:06:57.091Z,17.04
2016-05-31T05:07:57.078Z,16.9
2016-05-31T05:08:57.049Z,16.93
2016-05-31T05:09:57.036Z,16.83
2016-05-31T05:10:56.864Z,16.72
2016-05-31T05:11:57.007Z,16.81
2016-05-31T05:12:56.979Z,16.9
2016-05-31T05:13:56.966Z,16.89
2016-05-31T05:14:56.781Z,16.9
2016-05-31T05:15:56.941Z,16.9
2016-05-31T05:16:56.896Z,17.02
2016-05-31T05:17:56.883Z,16.87
2016-05-31T05:18:56.869Z,16.91
2016-05-31T05:19:56.858Z,16.91
2016-05-31T05:20:56.844Z,16.89
2016-05-31T05:21:56.847Z,16.79
2016-05-31T05:22:57.962Z,16.78
2016-05-31T05:23:56.790Z,16.87
2016-05-31T05:24:56.777Z,16.83
2016-05-31T05:25:56.748Z,16.84
2016-05-31T05:26:56.735Z,16.87
2016-05-31T05:27:56.723Z,16.84
2016-05-31T05:28:56.694Z,16.81
2016-05-31T05:29:56.524Z,16.87
2016-05-31T05:30:56.668Z,16.83
2016-05-31T05:31:56.655Z,16.75
2016-05-31T05:32:56.626Z,16.87
2016-05-31T05:33:56.614Z,16.81
2016-05-31T05:34:56.601Z,16.93
2016-05-31T05:35:56.588Z,16.94
2016-05-31T05:36:56.575Z,16.94
2016-05-31T05:37:57.062Z,16.97
2016-05-31T05:38:56.533Z,16.99
2016-05-31T05:39:56.505Z,16.96
2016-05-31T05:40:56.492Z,16.99
2016-05-31T05:41:56.478Z,16.89
2016-05-31T05:42:56.310Z,16.83
2016-05-31T05:43:56.453Z,16.89
2016-05-31T05:44:56.425Z,16.93
2016-05-31T05:45:56.083Z,16.94
2016-05-31T05:46:56.383Z,16.87
2016-05-31T05:47:56.370Z,16.87
2016-05-31T05:48:56.357Z,16.94
2016-05-31T05:49:56.328Z,16.76
2016-05-31T05:50:56.174Z,16.89
2016-05-31T05:51:56.147Z,16.89
2016-05-31T05:52:56.149Z,16.87
2016-05-31T05:53:56.292Z,16.87
2016-05-31T05:54:56.249Z,17.05
2016-05-31T05:55:56.251Z,17.06
2016-05-31T05:56:56.207Z,17.06
2016-05-31T05:57:56.202Z,16.99
2016-05-31T05:58:56.045Z,17.04
2016-05-31T05:59:56.230Z,17.15
2016-05-31T06:00:56.228Z,17.06
2016-05-31T06:01:56.241Z,17.08
2016-05-31T06:02:56.234Z,16.91
2016-05-31T06:03:56.090Z,16.97
2016-05-31T06:04:56.227Z,16.96
2016-05-31T06:05:56.224Z,17.02
2016-05-31T06:06:56.236Z,16.97
2016-05-31T06:07:56.527Z,16.97
2016-05-31T06:08:56.189Z,17.06
2016-05-31T06:09:56.181Z,16.99
2016-05-31T06:10:56.015Z,17.08
2016-05-31T06:11:56.162Z,17.01
2016-05-31T06:12:56.151Z,17.01
2016-05-31T06:13:56.107Z,17.05
2016-05-31T06:14:56.096Z,16.97
2016-05-31T06:15:55.913Z,16.96
2016-05-31T06:16:56.072Z,16.96
2016-05-31T06:17:56.045Z,16.89
2016-05-31T06:18:56.032Z,17.09
2016-05-31T06:19:56.020Z,16.97
2016-05-31T06:20:55.991Z,16.84
2016-05-31T06:21:55.979Z,16.99
2016-05-31T06:22:55.983Z,17.04
2016-05-31T06:23:56.344Z,17.09
2016-05-31T06:24:55.940Z,17.05
2016-05-31T06:25:55.913Z,17.08
2016-05-31T06:26:55.899Z,17.14
2016-05-31T06:27:55.886Z,17.12
2016-05-31T06:28:55.873Z,17.12
2016-05-31T06:29:55.845Z,17.16
2016-05-31T06:30:55.832Z,17.24
2016-05-31T06:31:55.803Z,17.29
2016-05-31T06:32:55.790Z,17.3
2016-05-31T06:33:55.761Z,17.15
2016-05-31T06:34:55.749Z,17.16
2016-05-31T06:35:55.751Z,17.26
2016-05-31T06:36:55.739Z,17.09
2016-05-31T06:37:56.741Z,17.22
2016-05-31T06:38:55.698Z,17.29
2016-05-31T06:39:55.668Z,17.3
2016-05-31T06:40:55.655Z,17.33
2016-05-31T06:41:55.642Z,17.23
2016-05-31T06:42:55.614Z,17.39
2016-05-31T06:43:55.601Z,17.33
2016-05-31T06:44:55.431Z,17.57
2016-05-31T06:45:55.403Z,17.7
2016-05-31T06:46:55.546Z,17.71
2016-05-31T06:47:55.362Z,17.6
2016-05-31T06:48:55.349Z,17.42
2016-05-31T06:49:55.352Z,17.38
2016-05-31T06:50:55.480Z,17.54
2016-05-31T06:51:55.466Z,17.46
2016-05-31T06:52:55.985Z,17.42
2016-05-31T06:53:56.002Z,17.39
2016-05-31T06:54:55.412Z,17.54
2016-05-31T06:55:55.243Z,17.65
2016-05-31T06:56:55.371Z,17.78
2016-05-31T06:57:55.357Z,17.82
2016-05-31T06:58:55.344Z,17.8
2016-05-31T06:59:55.316Z,17.83
2016-05-31T07:00:55.319Z,17.7
2016-05-31T07:01:55.290Z,17.46
2016-05-31T07:02:55.121Z,17.76
2016-05-31T07:03:55.264Z,17.63
2016-05-31T07:04:55.267Z,17.67
2016-05-31T07:05:55.067Z,17.67
2016-05-31T07:06:55.209Z,17.74
2016-05-31T07:07:55.962Z,17.72
2016-05-31T07:08:55.028Z,17.82
2016-05-31T07:09:55.156Z,17.85
2016-05-31T07:10:55.142Z,17.8
2016-05-31T07:11:55.129Z,17.72
2016-05-31T07:12:55.116Z,17.89
2016-05-31T07:13:55.089Z,17.87
2016-05-31T07:14:54.919Z,17.9
2016-05-31T07:15:55.047Z,17.94
2016-05-31T07:16:54.877Z,17.9
2016-05-31T07:17:55.036Z,17.87
2016-05-31T07:18:54.991Z,18.01
2016-05-31T07:19:54.995Z,18
2016-05-31T07:20:54.982Z,17.92
2016-05-31T07:21:54.797Z,18.01
2016-05-31T07:22:55.190Z,18.05
2016-05-31T07:23:54.944Z,18.16
2016-05-31T07:24:54.899Z,18.03
2016-05-31T07:25:54.885Z,18.13
2016-05-31T07:26:54.857Z,18.19
2016-05-31T07:27:54.829Z,18.29
2016-05-31T07:28:54.816Z,18.25
2016-05-31T07:29:54.834Z,18.35
2016-05-31T07:30:54.805Z,18.31
2016-05-31T07:31:54.777Z,18.2
2016-05-31T07:32:54.765Z,18.11
2016-05-31T07:33:54.595Z,18.13
2016-05-31T07:34:54.582Z,18.16
2016-05-31T07:35:54.709Z,18.2
2016-05-31T07:36:54.712Z,18.15
2016-05-31T07:37:55.090Z,18.22
2016-05-31T07:38:54.515Z,18.2
2016-05-31T07:39:54.658Z,18.4
2016-05-31T07:40:54.629Z,18.47
2016-05-31T07:41:54.695Z,18.65
2016-05-31T07:42:54.306Z,18.47
2016-05-31T07:43:54.590Z,18.62
2016-05-31T07:44:54.405Z,18.45
2016-05-31T07:45:54.550Z,18.63
2016-05-31T07:46:54.537Z,18.63
2016-05-31T07:47:54.508Z,18.77
2016-05-31T07:48:54.510Z,18.71
2016-05-31T07:49:54.481Z,18.65
2016-05-31T07:50:54.313Z,18.75
2016-05-31T07:51:54.456Z,18.71
2016-05-31T07:52:54.427Z,18.75
2016-05-31T07:53:55.711Z,18.75
2016-05-31T07:54:54.385Z,18.74
2016-05-31T07:55:54.373Z,18.68
2016-05-31T07:56:54.360Z,18.81
2016-05-31T07:57:54.363Z,18.8
2016-05-31T07:58:54.334Z,18.71
2016-05-31T07:59:54.321Z,18.73
2016-05-31T08:00:54.121Z,18.77
2016-05-31T08:01:54.296Z,18.84
2016-05-31T08:02:54.266Z,18.92
2016-05-31T08:03:54.237Z,18.93
2016-05-31T08:04:54.069Z,18.89
2016-05-31T08:05:54.229Z,19
2016-05-31T08:06:54.215Z,19.07
2016-05-31T08:07:54.061Z,18.89
2016-05-31T08:08:54.720Z,18.89
2016-05-31T08:09:54.144Z,18.96
2016-05-31T08:10:54.148Z,19
2016-05-31T08:11:54.135Z,19.12
2016-05-31T08:12:54.090Z,19.07
2016-05-31T08:13:54.077Z,19.08
2016-05-31T08:14:54.065Z,19.29
2016-05-31T08:15:54.036Z,19.27
2016-05-31T08:16:54.070Z,19.44
2016-05-31T08:17:54.025Z,19.41
2016-05-31T08:18:53.841Z,19.45
2016-05-31T08:19:53.983Z,19.55
2016-05-31T08:20:53.986Z,19.52
2016-05-31T08:21:53.958Z,19.4
2016-05-31T08:22:54.352Z,19.41
2016-05-31T08:23:54.010Z,19.49
2016-05-31T08:24:53.888Z,19.63
2016-05-31T08:25:53.735Z,19.63
2016-05-31T08:26:53.878Z,19.49
2016-05-31T08:27:53.849Z,19.67
2016-05-31T08:28:53.836Z,19.74
2016-05-31T08:29:53.823Z,19.76
2016-05-31T08:30:53.796Z,19.88
2016-05-31T08:31:53.782Z,19.81
2016-05-31T08:32:53.769Z,19.86
2016-05-31T08:33:53.756Z,19.76
2016-05-31T08:34:53.743Z,19.79
2016-05-31T08:35:53.559Z,19.81
2016-05-31T08:36:53.717Z,19.74
2016-05-31T08:37:53.549Z,19.86
2016-05-31T08:38:53.942Z,19.84
2016-05-31T08:39:53.648Z,19.96
2016-05-31T08:40:53.650Z,19.94
2016-05-31T08:41:53.309Z,19.82
2016-05-31T08:42:53.453Z,19.99
2016-05-31T08:43:53.580Z,20.04
2016-05-31T08:44:53.411Z,20.03
2016-05-31T08:45:53.570Z,20.11
2016-05-31T08:46:53.541Z,20.04
2016-05-31T08:47:53.512Z,20.14
2016-05-31T08:48:53.515Z,20.03
2016-05-31T08:49:53.487Z,20.13
2016-05-31T08:50:53.458Z,20.16
2016-05-31T08:51:53.461Z,20.25
2016-05-31T08:52:53.650Z,20.16
2016-05-31T08:53:53.294Z,20.29
2016-05-31T08:54:53.406Z,20.32
2016-05-31T08:55:53.253Z,20.48
2016-05-31T08:56:53.396Z,20.37
2016-05-31T08:57:53.211Z,20.39
2016-05-31T08:58:53.355Z,20.4
2016-05-31T08:59:53.185Z,20.52
2016-05-31T09:00:53.313Z,20.47
2016-05-31T09:01:53.144Z,20.56
2016-05-31T09:02:53.287Z,20.4
2016-05-31T09:03:53.118Z,20.37
2016-05-31T09:05:53.232Z,20.59
2016-05-31T09:06:53.220Z,20.69
2016-05-31T09:07:53.410Z,20.84
2016-05-31T09:08:53.226Z,20.9
2016-05-31T09:09:53.009Z,20.95
2016-05-31T09:10:53.012Z,20.87
2016-05-31T09:12:07.173Z,20.95
2016-05-31T09:12:53.158Z,21
2016-05-31T09:13:53.114Z,21.03
2016-05-31T09:14:53.101Z,21.03
2016-05-31T09:15:53.087Z,21.07
2016-05-31T09:16:53.075Z,21.11
2016-05-31T09:17:53.046Z,20.92
2016-05-31T09:18:53.034Z,21.05
2016-05-31T09:19:53.036Z,20.9
2016-05-31T09:20:53.008Z,21.17
2016-05-31T09:21:52.994Z,21.22
2016-05-31T09:22:54.607Z,21.21
2016-05-31T09:23:52.999Z,21.29
2016-05-31T09:24:53.112Z,21.3
2016-05-31T09:25:52.927Z,21.33
2016-05-31T09:26:52.914Z,21.29
2016-05-31T09:27:52.901Z,21.35
2016-05-31T09:28:52.873Z,21.35
2016-05-31T09:29:53.110Z,21.52
2016-05-31T09:30:52.863Z,21.57
2016-05-31T09:31:52.834Z,21.67
2016-05-31T09:32:52.838Z,21.75
2016-05-31T09:33:52.807Z,21.57
2016-05-31T09:34:53.030Z,21.66
2016-05-31T09:35:52.829Z,21.79
2016-05-31T09:36:52.784Z,21.79
2016-05-31T09:37:53.022Z,21.83
2016-05-31T09:38:52.947Z,21.82
2016-05-31T09:39:52.699Z,21.89
2016-05-31T09:40:52.546Z,21.98
2016-05-31T09:41:52.689Z,21.89
2016-05-31T09:42:52.676Z,22.04
2016-05-31T09:43:52.662Z,21.95
2016-05-31T09:44:52.650Z,21.98
2016-05-31T09:45:52.622Z,22.04
2016-05-31T09:46:52.734Z,22.1
2016-05-31T09:47:52.580Z,22.11
2016-05-31T09:48:52.442Z,22.08
2016-05-31T09:49:52.570Z,22.11
2016-05-31T09:50:52.557Z,22.11
2016-05-31T09:51:52.403Z,22.2
2016-05-31T09:52:52.531Z,22.11
2016-05-31T09:53:52.986Z,22.13
2016-05-31T09:54:52.708Z,22.1
2016-05-31T09:55:52.555Z,22.07
2016-05-31T09:56:52.464Z,22.1
2016-05-31T09:57:52.450Z,22.17
2016-05-31T09:58:52.500Z,22.13
2016-05-31T09:59:52.690Z,22.2
2016-05-31T10:00:52.428Z,22.43
2016-05-31T10:01:52.274Z,22.45
2016-05-31T10:02:52.480Z,22.59
2016-05-31T10:03:52.420Z,22.53
2016-05-31T10:04:52.532Z,22.65
2016-05-31T10:05:52.409Z,22.76
2016-05-31T10:06:52.335Z,22.78
2016-05-31T10:07:52.571Z,22.72
2016-05-31T10:08:52.355Z,22.8
2016-05-31T10:09:52.279Z,22.59
2016-05-31T10:10:52.268Z,22.65
2016-05-31T10:11:52.270Z,22.68
2016-05-31T10:12:52.304Z,22.84
2016-05-31T10:13:52.243Z,22.83
2016-05-31T10:14:52.356Z,22.91
2016-05-31T10:15:52.202Z,22.93
2016-05-31T10:16:52.018Z,23.06
2016-05-31T10:17:52.161Z,23.05
2016-05-31T10:18:52.148Z,22.93
2016-05-31T10:19:52.134Z,23.1
2016-05-31T10:20:52.123Z,23.2
2016-05-31T10:21:52.109Z,23.23
2016-05-31T10:22:52.096Z,23.32
2016-05-31T10:23:52.006Z,23.4
2016-05-31T10:24:52.055Z,23.55
2016-05-31T10:25:52.041Z,23.62
2016-05-31T10:26:52.044Z,23.74
2016-05-31T10:27:52.016Z,23.83
2016-05-31T10:28:52.003Z,23.86
2016-05-31T10:29:51.990Z,23.98
2016-05-31T10:30:51.977Z,24.02
2016-05-31T10:31:51.964Z,24.03
2016-05-31T10:32:51.810Z,24.24
2016-05-31T10:33:51.922Z,24.2
2016-05-31T10:34:51.754Z,24.3
2016-05-31T10:35:51.912Z,24.5
2016-05-31T10:36:51.899Z,24.54
2016-05-31T10:37:51.965Z,24.63
2016-05-31T10:38:53.358Z,24.65
2016-05-31T10:39:51.860Z,24.95
2016-05-31T10:40:51.816Z,25.22
2016-05-31T10:41:51.819Z,25.36
2016-05-31T10:42:51.665Z,25.29
2016-05-31T10:43:51.809Z,25.29
2016-05-31T10:44:51.781Z,25.44
2016-05-31T10:45:51.767Z,25.38
2016-05-31T10:46:51.754Z,25.47
2016-05-31T10:47:51.835Z,25.7
2016-05-31T10:48:51.587Z,25.75
2016-05-31T10:50:19.765Z,25.59
2016-05-31T10:55:41.997Z,25.85
2016-05-31T10:56:42.000Z,25.8
2016-05-31T10:57:41.956Z,26.13
2016-05-31T10:58:41.958Z,26.23
2016-05-31T10:59:41.961Z,26.45
2016-05-31T11:00:41.917Z,26.48
2016-05-31T11:01:41.919Z,26.81
2016-05-31T11:02:41.907Z,26.73
2016-05-31T11:03:41.894Z,26.62
2016-05-31T11:04:41.865Z,26.48
2016-05-31T11:05:41.868Z,26.73
2016-05-31T11:06:41.871Z,26.73
2016-05-31T11:07:41.857Z,26.44
2016-05-31T11:08:41.955Z,26.4
2016-05-31T11:09:41.832Z,26.36
2016-05-31T11:10:41.803Z,26.18
2016-05-31T11:11:41.790Z,26.52
2016-05-31T11:12:41.621Z,26.48
2016-05-31T11:13:41.701Z,26.43
2016-05-31T11:14:41.768Z,26.6
2016-05-31T11:15:41.770Z,27.17
2016-05-31T11:16:41.757Z,27.3
2016-05-31T11:17:41.729Z,27.33
2016-05-31T11:18:41.715Z,27.17
2016-05-31T11:19:41.703Z,27.03
2016-05-31T11:20:41.689Z,27.29
2016-05-31T11:21:41.661Z,27.36
2016-05-31T11:22:42.133Z,27.29
2016-05-31T11:23:42.057Z,27.26
2016-05-31T11:24:41.794Z,27.52
2016-05-31T11:25:42.422Z,27.33
2016-05-31T11:26:42.050Z,26.88
2016-05-31T11:27:41.599Z,27.12
2016-05-31T11:28:41.586Z,27.29
2016-05-31T11:29:41.433Z,27.32
2016-05-31T11:30:41.591Z,27.39
2016-05-31T11:31:41.641Z,27.55
2016-05-31T11:32:41.409Z,27.64
2016-05-31T11:33:41.553Z,27.82
2016-05-31T11:34:41.399Z,28.02
2016-05-31T11:35:41.527Z,28.22
2016-05-31T11:36:41.388Z,28.59
2016-05-31T11:37:41.735Z,28.7
2016-05-31T11:38:42.268Z,29.13
2016-05-31T11:39:41.537Z,29.1
2016-05-31T11:40:41.525Z,29.17
2016-05-31T11:41:41.527Z,29.36
2016-05-31T11:42:41.357Z,29.79
2016-05-31T11:43:41.502Z,30.06
2016-05-31T11:44:41.348Z,30.16
2016-05-31T11:45:41.491Z,30.46
2016-05-31T11:46:41.510Z,29.88
2016-05-31T11:47:41.496Z,30.5
2016-05-31T11:48:41.498Z,30.77
2016-05-31T11:49:41.486Z,31
2016-05-31T11:50:41.489Z,31.05
2016-05-31T11:51:41.492Z,31.17
2016-05-31T11:52:42.385Z,31.33
2016-05-31T11:53:41.512Z,31.71
2016-05-31T11:54:41.484Z,31.81
2016-05-31T11:55:41.471Z,31.66
2016-05-31T11:56:41.520Z,31.58
2016-05-31T11:57:41.320Z,31.03
2016-05-31T11:58:41.495Z,31.1
2016-05-31T11:59:41.497Z,31.64
2016-05-31T12:00:41.500Z,31.93
2016-05-31T12:01:41.518Z,31.77
2016-05-31T12:02:41.521Z,32.41
2016-05-31T12:03:41.494Z,32.77
2016-05-31T12:04:41.324Z,32.45
2016-05-31T12:05:41.530Z,32.11
2016-05-31T12:06:41.516Z,32.11
2016-05-31T12:07:41.487Z,32.49
2016-05-31T12:08:41.522Z,32.15
2016-05-31T12:09:41.353Z,32.73
2016-05-31T12:10:41.496Z,32.85
2016-05-31T12:11:41.530Z,33.02
2016-05-31T12:12:41.517Z,33.24
2016-05-31T12:13:41.520Z,33.43
2016-05-31T12:14:41.507Z,33.09
2016-05-31T12:15:41.525Z,32.87
2016-05-31T12:16:41.528Z,33.23
2016-05-31T12:17:41.531Z,33.36
2016-05-31T12:18:41.361Z,33.47
2016-05-31T12:19:41.348Z,33.39
2016-05-31T12:20:41.523Z,33.42
2016-05-31T12:21:41.510Z,33.2
2016-05-31T12:22:41.529Z,33.27
2016-05-31T12:23:41.718Z,33.37
2016-05-31T12:24:41.377Z,33.46
2016-05-31T12:25:41.520Z,33.86
2016-05-31T12:26:41.555Z,34.4
2016-05-31T12:27:41.401Z,34.11
2016-05-31T12:28:41.544Z,33.74
2016-05-31T12:29:41.531Z,33.73
2016-05-31T12:30:41.550Z,33.2
2016-05-31T12:31:41.552Z,33.47
2016-05-31T12:32:41.430Z,33.62
2016-05-31T12:33:41.604Z,34.21
2016-05-31T12:34:41.966Z,33.94
2016-05-31T12:35:41.563Z,34.21
2016-05-31T12:36:41.550Z,34.24
2016-05-31T12:37:41.569Z,34.43
2016-05-31T12:38:41.430Z,34.64
2016-05-31T12:39:41.590Z,34.66
2016-05-31T12:40:41.560Z,34.58
2016-05-31T12:41:41.579Z,34.93
2016-05-31T12:42:41.582Z,34.9
2016-05-31T12:43:41.601Z,34.71
2016-05-31T12:44:41.431Z,34.48
2016-05-31T12:45:41.590Z,34.05
2016-05-31T12:46:41.592Z,33.46
2016-05-31T12:47:41.736Z,33.57
2016-05-31T12:48:41.599Z,33.3
2016-05-31T12:49:41.601Z,33.4
2016-05-31T12:50:41.620Z,33.45
2016-05-31T12:51:41.606Z,33.42
2016-05-31T12:52:41.750Z,33.37
2016-05-31T12:53:41.814Z,33.99
2016-05-31T12:54:41.614Z,34.32
2016-05-31T12:55:41.617Z,34.75
2016-05-31T12:56:41.479Z,35.34
2016-05-31T12:57:41.622Z,34.81
2016-05-31T12:58:41.641Z,34.99
2016-05-31T12:59:41.456Z,34.61
2016-05-31T13:00:41.458Z,35.22